sensor_id;sensor_type;location;lat;lon;timestamp;temperature;humidity
57390;DHT22;43217;52.694;6.214;2023-04-19T00:00:34;8.80;99.90
57390;DHT22;43217;52.694;6.214;2023-04-19T00:03:00;8.80;99.90
57390;DHT22;43217;52.694;6.214;2023-04-19T00:05:27;8.90;99.90
57390;DHT22;43217;52.694;6.214;2023-04-19T00:07:53;8.80;99.90
57390;DHT22;43217;52.694;6.214;2023-04-19T00:10:19;8.80;99.90
57390;DHT22;43217;52.694;6.214;2023-04-19T00:12:45;8.80;99.90
57390;DHT22;43217;52.694;6.214;2023-04-19T00:15:10;8.80;99.90
57390;DHT22;43217;52.694;6.214;2023-04-19T00:17:36;8.90;99.90
57390;DHT22;43217;52.694;6.214;2023-04-19T00:20:03;8.80;99.90
57390;DHT22;43217;52.694;6.214;2023-04-19T00:22:29;8.80;99.90
57390;DHT22;43217;52.694;6.214;2023-04-19T00:24:55;8.80;99.90
57390;DHT22;43217;52.694;6.214;2023-04-19T00:27:20;8.80;99.90
57390;DHT22;43217;52.694;6.214;2023-04-19T00:29:46;8.80;99.90
57390;DHT22;43217;52.694;6.214;2023-04-19T00:32:12;8.70;99.90
57390;DHT22;43217;52.694;6.214;2023-04-19T00:34:37;8.70;99.90
57390;DHT22;43217;52.694;6.214;2023-04-19T00:37:03;8.70;99.90
57390;DHT22;43217;52.694;6.214;2023-04-19T00:39:31;8.70;99.90
57390;DHT22;43217;52.694;6.214;2023-04-19T00:41:57;8.70;99.90
57390;DHT22;43217;52.694;6.214;2023-04-19T00:44:23;8.60;99.90
57390;DHT22;43217;52.694;6.214;2023-04-19T00:46:49;8.60;99.90
57390;DHT22;43217;52.694;6.214;2023-04-19T00:49:19;8.60;99.90
57390;DHT22;43217;52.694;6.214;2023-04-19T00:51:45;8.50;99.90
57390;DHT22;43217;52.694;6.214;2023-04-19T00:54:12;8.50;99.90
57390;DHT22;43217;52.694;6.214;2023-04-19T00:56:39;8.50;99.90
57390;DHT22;43217;52.694;6.214;2023-04-19T00:59:05;8.40;99.90
57390;DHT22;43217;52.694;6.214;2023-04-19T01:01:34;8.40;99.90
57390;DHT22;43217;52.694;6.214;2023-04-19T01:04:00;8.40;99.90
57390;DHT22;43217;52.694;6.214;2023-04-19T01:06:27;8.40;99.90
57390;DHT22;43217;52.694;6.214;2023-04-19T01:08:54;8.40;99.90
57390;DHT22;43217;52.694;6.214;2023-04-19T01:11:22;8.40;99.90
57390;DHT22;43217;52.694;6.214;2023-04-19T01:13:48;8.40;99.90
57390;DHT22;43217;52.694;6.214;2023-04-19T01:16:13;8.40;99.90
57390;DHT22;43217;52.694;6.214;2023-04-19T01:18:39;8.40;99.90
57390;DHT22;43217;52.694;6.214;2023-04-19T01:21:06;8.40;99.90
57390;DHT22;43217;52.694;6.214;2023-04-19T01:23:32;8.40;99.90
57390;DHT22;43217;52.694;6.214;2023-04-19T01:25:58;8.40;99.90
57390;DHT22;43217;52.694;6.214;2023-04-19T01:28:25;8.40;99.90
57390;DHT22;43217;52.694;6.214;2023-04-19T01:30:51;8.40;99.90
57390;DHT22;43217;52.694;6.214;2023-04-19T01:33:18;8.40;99.90
57390;DHT22;43217;52.694;6.214;2023-04-19T01:35:45;8.50;99.90
57390;DHT22;43217;52.694;6.214;2023-04-19T01:38:11;8.50;99.90
57390;DHT22;43217;52.694;6.214;2023-04-19T01:40:36;8.50;99.90
57390;DHT22;43217;52.694;6.214;2023-04-19T01:43:02;8.50;99.90
57390;DHT22;43217;52.694;6.214;2023-04-19T01:45:28;8.50;99.90
57390;DHT22;43217;52.694;6.214;2023-04-19T01:47:53;8.50;99.90
57390;DHT22;43217;52.694;6.214;2023-04-19T01:50:20;8.60;99.90
57390;DHT22;43217;52.694;6.214;2023-04-19T01:52:46;8.60;99.90
57390;DHT22;43217;52.694;6.214;2023-04-19T01:55:12;8.60;99.90
57390;DHT22;43217;52.694;6.214;2023-04-19T01:57:37;8.60;99.90
57390;DHT22;43217;52.694;6.214;2023-04-19T02:00:04;8.60;99.90
57390;DHT22;43217;52.694;6.214;2023-04-19T02:02:30;8.60;99.90
57390;DHT22;43217;52.694;6.214;2023-04-19T02:04:56;8.60;99.90
57390;DHT22;43217;52.694;6.214;2023-04-19T02:07:22;8.60;99.90
57390;DHT22;43217;52.694;6.214;2023-04-19T02:09:48;8.60;99.90
57390;DHT22;43217;52.694;6.214;2023-04-19T02:12:13;8.60;99.90
57390;DHT22;43217;52.694;6.214;2023-04-19T02:14:39;8.60;99.90
57390;DHT22;43217;52.694;6.214;2023-04-19T02:17:05;8.60;99.90
57390;DHT22;43217;52.694;6.214;2023-04-19T02:19:30;8.60;99.90
57390;DHT22;43217;52.694;6.214;2023-04-19T02:21:56;8.60;99.90
57390;DHT22;43217;52.694;6.214;2023-04-19T02:24:25;8.50;99.90
57390;DHT22;43217;52.694;6.214;2023-04-19T02:26:51;8.60;99.90
57390;DHT22;43217;52.694;6.214;2023-04-19T02:29:17;8.50;99.90
57390;DHT22;43217;52.694;6.214;2023-04-19T02:31:44;8.50;99.90
57390;DHT22;43217;52.694;6.214;2023-04-19T02:34:11;8.50;99.90
57390;DHT22;43217;52.694;6.214;2023-04-19T02:36:36;8.50;99.90
57390;DHT22;43217;52.694;6.214;2023-04-19T02:39:02;8.40;99.90
57390;DHT22;43217;52.694;6.214;2023-04-19T02:41:30;8.50;99.90
57390;DHT22;43217;52.694;6.214;2023-04-19T02:43:55;8.40;99.90
57390;DHT22;43217;52.694;6.214;2023-04-19T02:46:21;8.40;99.90
57390;DHT22;43217;52.694;6.214;2023-04-19T02:48:47;8.40;99.90
57390;DHT22;43217;52.694;6.214;2023-04-19T02:51:16;8.50;99.90
57390;DHT22;43217;52.694;6.214;2023-04-19T02:53:42;8.40;99.90
57390;DHT22;43217;52.694;6.214;2023-04-19T02:56:08;8.40;99.90
57390;DHT22;43217;52.694;6.214;2023-04-19T02:58:33;8.40;99.90
57390;DHT22;43217;52.694;6.214;2023-04-19T03:00:59;8.40;99.90
57390;DHT22;43217;52.694;6.214;2023-04-19T03:03:25;8.40;99.90
57390;DHT22;43217;52.694;6.214;2023-04-19T03:05:51;8.40;99.90
57390;DHT22;43217;52.694;6.214;2023-04-19T03:08:17;8.40;99.90
57390;DHT22;43217;52.694;6.214;2023-04-19T03:10:42;8.40;99.90
57390;DHT22;43217;52.694;6.214;2023-04-19T03:13:08;8.40;99.90
57390;DHT22;43217;52.694;6.214;2023-04-19T03:15:34;8.40;99.90
57390;DHT22;43217;52.694;6.214;2023-04-19T03:17:59;8.30;99.90
57390;DHT22;43217;52.694;6.214;2023-04-19T03:20:25;8.30;99.90
57390;DHT22;43217;52.694;6.214;2023-04-19T03:22:51;8.20;99.90
57390;DHT22;43217;52.694;6.214;2023-04-19T03:25:16;8.20;99.90
57390;DHT22;43217;52.694;6.214;2023-04-19T03:27:42;8.10;99.90
57390;DHT22;43217;52.694;6.214;2023-04-19T03:30:11;8.10;99.90
57390;DHT22;43217;52.694;6.214;2023-04-19T03:32:37;8.00;99.90
57390;DHT22;43217;52.694;6.214;2023-04-19T03:35:03;8.00;99.90
57390;DHT22;43217;52.694;6.214;2023-04-19T03:37:28;8.00;99.90
57390;DHT22;43217;52.694;6.214;2023-04-19T03:39:54;7.90;99.90
57390;DHT22;43217;52.694;6.214;2023-04-19T03:42:20;7.90;99.90
57390;DHT22;43217;52.694;6.214;2023-04-19T03:44:45;7.80;99.90
57390;DHT22;43217;52.694;6.214;2023-04-19T03:47:11;7.80;99.90
57390;DHT22;43217;52.694;6.214;2023-04-19T03:49:36;7.70;99.90
57390;DHT22;43217;52.694;6.214;2023-04-19T03:52:02;7.70;99.90
57390;DHT22;43217;52.694;6.214;2023-04-19T03:54:28;7.60;99.90
57390;DHT22;43217;52.694;6.214;2023-04-19T03:56:53;7.60;99.90
57390;DHT22;43217;52.694;6.214;2023-04-19T03:59:19;7.50;99.90
57390;DHT22;43217;52.694;6.214;2023-04-19T04:01:45;7.50;99.90
57390;DHT22;43217;52.694;6.214;2023-04-19T04:04:10;7.40;99.90
57390;DHT22;43217;52.694;6.214;2023-04-19T04:06:36;7.40;99.90
57390;DHT22;43217;52.694;6.214;2023-04-19T04:09:02;7.30;99.90
57390;DHT22;43217;52.694;6.214;2023-04-19T04:11:28;7.20;99.90
57390;DHT22;43217;52.694;6.214;2023-04-19T04:13:55;7.20;99.90
57390;DHT22;43217;52.694;6.214;2023-04-19T04:16:21;7.10;99.90
57390;DHT22;43217;52.694;6.214;2023-04-19T04:18:46;7.10;99.90
57390;DHT22;43217;52.694;6.214;2023-04-19T04:21:12;7.00;99.90
57390;DHT22;43217;52.694;6.214;2023-04-19T04:23:38;7.00;99.90
57390;DHT22;43217;52.694;6.214;2023-04-19T04:26:04;7.00;99.90
57390;DHT22;43217;52.694;6.214;2023-04-19T04:28:31;6.90;99.90
57390;DHT22;43217;52.694;6.214;2023-04-19T04:30:58;6.90;99.90
57390;DHT22;43217;52.694;6.214;2023-04-19T04:33:25;6.90;99.90
57390;DHT22;43217;52.694;6.214;2023-04-19T04:35:54;6.80;99.90
57390;DHT22;43217;52.694;6.214;2023-04-19T04:38:21;6.80;99.90
57390;DHT22;43217;52.694;6.214;2023-04-19T04:40:53;6.80;99.90
57390;DHT22;43217;52.694;6.214;2023-04-19T04:43:23;6.70;99.90
57390;DHT22;43217;52.694;6.214;2023-04-19T04:45:50;6.70;99.90
57390;DHT22;43217;52.694;6.214;2023-04-19T04:48:16;6.70;99.90
57390;DHT22;43217;52.694;6.214;2023-04-19T04:50:42;6.70;99.90
57390;DHT22;43217;52.694;6.214;2023-04-19T04:53:08;6.70;99.90
57390;DHT22;43217;52.694;6.214;2023-04-19T04:55:36;6.70;99.90
57390;DHT22;43217;52.694;6.214;2023-04-19T04:58:02;6.70;99.90
57390;DHT22;43217;52.694;6.214;2023-04-19T05:00:30;6.70;99.90
57390;DHT22;43217;52.694;6.214;2023-04-19T05:02:57;6.70;99.90
57390;DHT22;43217;52.694;6.214;2023-04-19T05:05:23;6.80;99.90
57390;DHT22;43217;52.694;6.214;2023-04-19T05:07:48;7.10;99.90
57390;DHT22;43217;52.694;6.214;2023-04-19T05:10:14;7.50;99.90
57390;DHT22;43217;52.694;6.214;2023-04-19T05:12:40;7.90;99.90
57390;DHT22;43217;52.694;6.214;2023-04-19T05:15:06;8.20;99.90
57390;DHT22;43217;52.694;6.214;2023-04-19T05:17:32;8.40;99.90
57390;DHT22;43217;52.694;6.214;2023-04-19T05:19:58;8.40;99.90
57390;DHT22;43217;52.694;6.214;2023-04-19T05:22:24;8.40;99.90
57390;DHT22;43217;52.694;6.214;2023-04-19T05:24:50;8.20;99.90
57390;DHT22;43217;52.694;6.214;2023-04-19T05:27:15;8.10;99.90
57390;DHT22;43217;52.694;6.214;2023-04-19T05:29:41;8.00;99.90
57390;DHT22;43217;52.694;6.214;2023-04-19T05:32:07;7.90;99.90
57390;DHT22;43217;52.694;6.214;2023-04-19T05:34:33;7.90;99.90
57390;DHT22;43217;52.694;6.214;2023-04-19T05:36:59;8.00;99.90
57390;DHT22;43217;52.694;6.214;2023-04-19T05:39:25;8.10;99.90
57390;DHT22;43217;52.694;6.214;2023-04-19T05:41:50;8.30;99.90
57390;DHT22;43217;52.694;6.214;2023-04-19T05:44:16;8.70;99.90
57390;DHT22;43217;52.694;6.214;2023-04-19T05:46:42;9.10;99.90
57390;DHT22;43217;52.694;6.214;2023-04-19T05:49:07;9.20;99.90
57390;DHT22;43217;52.694;6.214;2023-04-19T05:51:33;9.30;99.90
57390;DHT22;43217;52.694;6.214;2023-04-19T05:53:59;9.40;99.90
57390;DHT22;43217;52.694;6.214;2023-04-19T05:56:25;9.70;99.90
57390;DHT22;43217;52.694;6.214;2023-04-19T05:58:51;9.90;99.90
57390;DHT22;43217;52.694;6.214;2023-04-19T06:01:17;10.20;99.90
57390;DHT22;43217;52.694;6.214;2023-04-19T06:03:43;10.30;99.90
57390;DHT22;43217;52.694;6.214;2023-04-19T06:06:08;10.40;99.90
57390;DHT22;43217;52.694;6.214;2023-04-19T06:08:34;10.60;99.90
57390;DHT22;43217;52.694;6.214;2023-04-19T06:11:00;11.00;99.90
57390;DHT22;43217;52.694;6.214;2023-04-19T06:13:26;11.30;99.80
57390;DHT22;43217;52.694;6.214;2023-04-19T06:15:51;11.80;97.70
57390;DHT22;43217;52.694;6.214;2023-04-19T06:18:17;12.10;95.20
57390;DHT22;43217;52.694;6.214;2023-04-19T06:20:43;12.30;93.60
57390;DHT22;43217;52.694;6.214;2023-04-19T06:23:08;12.30;91.90
57390;DHT22;43217;52.694;6.214;2023-04-19T06:25:34;12.60;92.00
57390;DHT22;43217;52.694;6.214;2023-04-19T06:28:00;12.80;89.90
57390;DHT22;43217;52.694;6.214;2023-04-19T06:30:26;12.70;87.10
57390;DHT22;43217;52.694;6.214;2023-04-19T06:32:52;12.80;86.10
57390;DHT22;43217;52.694;6.214;2023-04-19T06:35:17;12.80;83.00
57390;DHT22;43217;52.694;6.214;2023-04-19T06:37:43;13.00;81.70
57390;DHT22;43217;52.694;6.214;2023-04-19T06:40:09;13.20;80.60
57390;DHT22;43217;52.694;6.214;2023-04-19T06:42:36;13.50;79.20
57390;DHT22;43217;52.694;6.214;2023-04-19T06:45:02;13.80;76.60
57390;DHT22;43217;52.694;6.214;2023-04-19T06:47:29;14.20;75.90
57390;DHT22;43217;52.694;6.214;2023-04-19T06:49:55;14.40;70.90
57390;DHT22;43217;52.694;6.214;2023-04-19T06:52:21;14.50;71.40
57390;DHT22;43217;52.694;6.214;2023-04-19T06:54:47;14.70;70.60
57390;DHT22;43217;52.694;6.214;2023-04-19T06:57:14;14.70;69.90
57390;DHT22;43217;52.694;6.214;2023-04-19T06:59:39;14.80;68.30
57390;DHT22;43217;52.694;6.214;2023-04-19T07:02:05;14.90;67.40
57390;DHT22;43217;52.694;6.214;2023-04-19T07:04:32;15.10;66.30
57390;DHT22;43217;52.694;6.214;2023-04-19T07:06:57;15.20;64.40
57390;DHT22;43217;52.694;6.214;2023-04-19T07:09:23;15.30;64.70
57390;DHT22;43217;52.694;6.214;2023-04-19T07:11:49;15.70;63.80
57390;DHT22;43217;52.694;6.214;2023-04-19T07:14:16;15.30;61.80
57390;DHT22;43217;52.694;6.214;2023-04-19T07:16:44;15.10;60.50
57390;DHT22;43217;52.694;6.214;2023-04-19T07:19:11;15.10;61.00
57390;DHT22;43217;52.694;6.214;2023-04-19T07:21:36;15.20;60.90
57390;DHT22;43217;52.694;6.214;2023-04-19T07:24:04;15.20;59.70
57390;DHT22;43217;52.694;6.214;2023-04-19T07:26:30;15.20;60.50
57390;DHT22;43217;52.694;6.214;2023-04-19T07:28:56;15.40;61.00
57390;DHT22;43217;52.694;6.214;2023-04-19T07:31:22;15.60;58.80
57390;DHT22;43217;52.694;6.214;2023-04-19T07:33:50;15.80;59.30
57390;DHT22;43217;52.694;6.214;2023-04-19T07:36:16;15.90;58.20
57390;DHT22;43217;52.694;6.214;2023-04-19T07:38:42;16.00;57.80
57390;DHT22;43217;52.694;6.214;2023-04-19T07:41:08;15.80;58.10
57390;DHT22;43217;52.694;6.214;2023-04-19T07:43:34;15.90;57.10
57390;DHT22;43217;52.694;6.214;2023-04-19T07:46:00;15.90;57.00
57390;DHT22;43217;52.694;6.214;2023-04-19T07:48:26;16.00;56.70
57390;DHT22;43217;52.694;6.214;2023-04-19T07:50:51;16.30;55.90
57390;DHT22;43217;52.694;6.214;2023-04-19T07:53:17;16.30;55.70
57390;DHT22;43217;52.694;6.214;2023-04-19T07:55:43;16.60;55.10
57390;DHT22;43217;52.694;6.214;2023-04-19T07:58:10;16.60;54.60
57390;DHT22;43217;52.694;6.214;2023-04-19T08:00:36;17.00;54.40
57390;DHT22;43217;52.694;6.214;2023-04-19T08:03:02;16.80;53.40
57390;DHT22;43217;52.694;6.214;2023-04-19T08:05:28;16.90;53.80
57390;DHT22;43217;52.694;6.214;2023-04-19T08:07:54;17.10;53.40
57390;DHT22;43217;52.694;6.214;2023-04-19T08:10:21;16.90;52.60
57390;DHT22;43217;52.694;6.214;2023-04-19T08:12:47;17.10;52.80
57390;DHT22;43217;52.694;6.214;2023-04-19T08:15:14;17.20;51.30
57390;DHT22;43217;52.694;6.214;2023-04-19T08:17:40;17.00;52.00
57390;DHT22;43217;52.694;6.214;2023-04-19T08:20:08;17.20;52.70
57390;DHT22;43217;52.694;6.214;2023-04-19T08:22:35;17.00;51.70
57390;DHT22;43217;52.694;6.214;2023-04-19T08:25:01;16.80;51.30
57390;DHT22;43217;52.694;6.214;2023-04-19T08:27:26;16.80;51.60
57390;DHT22;43217;52.694;6.214;2023-04-19T08:29:53;16.80;52.40
57390;DHT22;43217;52.694;6.214;2023-04-19T08:32:19;16.80;51.00
57390;DHT22;43217;52.694;6.214;2023-04-19T08:34:45;16.90;50.60
57390;DHT22;43217;52.694;6.214;2023-04-19T08:37:10;16.60;50.40
57390;DHT22;43217;52.694;6.214;2023-04-19T08:39:36;16.80;51.00
57390;DHT22;43217;52.694;6.214;2023-04-19T08:42:06;17.00;50.00
57390;DHT22;43217;52.694;6.214;2023-04-19T08:44:33;17.10;49.80
57390;DHT22;43217;52.694;6.214;2023-04-19T08:46:59;17.00;50.60
57390;DHT22;43217;52.694;6.214;2023-04-19T08:49:27;17.00;51.00
57390;DHT22;43217;52.694;6.214;2023-04-19T08:51:54;17.40;51.00
57390;DHT22;43217;52.694;6.214;2023-04-19T08:54:22;17.30;48.80
57390;DHT22;43217;52.694;6.214;2023-04-19T08:56:48;17.10;49.10
57390;DHT22;43217;52.694;6.214;2023-04-19T08:59:13;17.30;47.60
57390;DHT22;43217;52.694;6.214;2023-04-19T09:01:40;17.30;48.10
57390;DHT22;43217;52.694;6.214;2023-04-19T09:04:06;17.10;48.30
57390;DHT22;43217;52.694;6.214;2023-04-19T09:06:39;16.70;47.90
57390;DHT22;43217;52.694;6.214;2023-04-19T09:09:48;16.60;48.30
57390;DHT22;43217;52.694;6.214;2023-04-19T09:12:17;16.60;47.50
57390;DHT22;43217;52.694;6.214;2023-04-19T09:14:46;16.70;47.80
57390;DHT22;43217;52.694;6.214;2023-04-19T09:17:13;16.80;47.80
57390;DHT22;43217;52.694;6.214;2023-04-19T09:19:46;16.80;47.30
57390;DHT22;43217;52.694;6.214;2023-04-19T09:22:12;17.00;46.70
57390;DHT22;43217;52.694;6.214;2023-04-19T09:24:38;17.20;47.20
57390;DHT22;43217;52.694;6.214;2023-04-19T09:27:04;17.10;45.60
57390;DHT22;43217;52.694;6.214;2023-04-19T09:29:30;17.20;46.80
57390;DHT22;43217;52.694;6.214;2023-04-19T09:31:57;17.00;45.20
57390;DHT22;43217;52.694;6.214;2023-04-19T09:34:23;17.00;45.40
57390;DHT22;43217;52.694;6.214;2023-04-19T09:36:49;16.80;45.70
57390;DHT22;43217;52.694;6.214;2023-04-19T09:39:31;16.20;45.50
57390;DHT22;43217;52.694;6.214;2023-04-19T09:41:57;15.50;45.10
57390;DHT22;43217;52.694;6.214;2023-04-19T09:44:23;15.00;46.60
57390;DHT22;43217;52.694;6.214;2023-04-19T09:46:49;14.70;46.90
57390;DHT22;43217;52.694;6.214;2023-04-19T09:49:22;14.40;47.30
57390;DHT22;43217;52.694;6.214;2023-04-19T09:51:56;14.40;46.30
57390;DHT22;43217;52.694;6.214;2023-04-19T09:54:25;14.20;47.30
57390;DHT22;43217;52.694;6.214;2023-04-19T09:56:56;14.30;47.60
57390;DHT22;43217;52.694;6.214;2023-04-19T09:59:22;14.20;47.80
57390;DHT22;43217;52.694;6.214;2023-04-19T10:01:53;14.30;48.60
57390;DHT22;43217;52.694;6.214;2023-04-19T10:04:19;14.20;48.00
57390;DHT22;43217;52.694;6.214;2023-04-19T10:06:50;14.20;48.80
57390;DHT22;43217;52.694;6.214;2023-04-19T10:09:23;14.30;49.20
57390;DHT22;43217;52.694;6.214;2023-04-19T10:11:52;14.30;47.10
57390;DHT22;43217;52.694;6.214;2023-04-19T10:14:24;14.50;48.00
57390;DHT22;43217;52.694;6.214;2023-04-19T10:16:50;14.50;48.20
57390;DHT22;43217;52.694;6.214;2023-04-19T10:19:19;14.40;48.60
57390;DHT22;43217;52.694;6.214;2023-04-19T10:21:47;14.30;47.50
57390;DHT22;43217;52.694;6.214;2023-04-19T10:24:14;14.40;47.40
57390;DHT22;43217;52.694;6.214;2023-04-19T10:29:54;14.30;47.50
57390;DHT22;43217;52.694;6.214;2023-04-19T10:32:20;14.40;48.50
57390;DHT22;43217;52.694;6.214;2023-04-19T10:34:46;14.40;48.00
57390;DHT22;43217;52.694;6.214;2023-04-19T10:37:15;14.20;48.00
57390;DHT22;43217;52.694;6.214;2023-04-19T10:39:42;14.20;48.80
57390;DHT22;43217;52.694;6.214;2023-04-19T10:42:08;14.30;49.30
57390;DHT22;43217;52.694;6.214;2023-04-19T10:44:34;14.20;48.50
57390;DHT22;43217;52.694;6.214;2023-04-19T10:46:59;14.10;49.70
57390;DHT22;43217;52.694;6.214;2023-04-19T10:49:27;14.10;50.30
57390;DHT22;43217;52.694;6.214;2023-04-19T10:51:53;14.20;51.00
57390;DHT22;43217;52.694;6.214;2023-04-19T10:54:29;14.10;50.50
57390;DHT22;43217;52.694;6.214;2023-04-19T10:57:06;14.10;50.90
57390;DHT22;43217;52.694;6.214;2023-04-19T10:59:36;14.20;51.70
57390;DHT22;43217;52.694;6.214;2023-04-19T11:02:04;14.10;50.80
57390;DHT22;43217;52.694;6.214;2023-04-19T11:07:01;14.10;51.10
57390;DHT22;43217;52.694;6.214;2023-04-19T11:09:38;14.20;51.20
57390;DHT22;43217;52.694;6.214;2023-04-19T11:12:07;14.40;51.00
57390;DHT22;43217;52.694;6.214;2023-04-19T11:14:55;14.50;51.80
57390;DHT22;43217;52.694;6.214;2023-04-19T11:17:29;14.60;52.30
57390;DHT22;43217;52.694;6.214;2023-04-19T11:22:40;14.80;50.80
57390;DHT22;43217;52.694;6.214;2023-04-19T11:25:07;14.80;50.00
57390;DHT22;43217;52.694;6.214;2023-04-19T11:27:34;14.90;49.60
57390;DHT22;43217;52.694;6.214;2023-04-19T11:30:17;14.90;48.00
57390;DHT22;43217;52.694;6.214;2023-04-19T11:32:46;14.80;47.40
57390;DHT22;43217;52.694;6.214;2023-04-19T11:35:12;14.60;47.70
57390;DHT22;43217;52.694;6.214;2023-04-19T11:37:38;14.80;48.80
57390;DHT22;43217;52.694;6.214;2023-04-19T11:40:05;14.60;47.70
57390;DHT22;43217;52.694;6.214;2023-04-19T11:42:32;14.70;48.00
57390;DHT22;43217;52.694;6.214;2023-04-19T11:44:58;14.70;48.60
57390;DHT22;43217;52.694;6.214;2023-04-19T11:47:25;14.70;48.40
57390;DHT22;43217;52.694;6.214;2023-04-19T11:49:54;14.70;48.70
57390;DHT22;43217;52.694;6.214;2023-04-19T11:52:24;14.70;48.90
57390;DHT22;43217;52.694;6.214;2023-04-19T11:54:53;14.80;50.10
57390;DHT22;43217;52.694;6.214;2023-04-19T11:57:29;14.90;49.30
57390;DHT22;43217;52.694;6.214;2023-04-19T12:00:27;15.00;49.80
57390;DHT22;43217;52.694;6.214;2023-04-19T12:02:53;15.00;50.20
57390;DHT22;43217;52.694;6.214;2023-04-19T12:05:19;15.10;49.20
57390;DHT22;43217;52.694;6.214;2023-04-19T12:08:01;14.90;48.60
57390;DHT22;43217;52.694;6.214;2023-04-19T12:10:31;14.80;48.80
57390;DHT22;43217;52.694;6.214;2023-04-19T12:12:57;14.80;49.30
57390;DHT22;43217;52.694;6.214;2023-04-19T12:15:39;14.90;49.10
57390;DHT22;43217;52.694;6.214;2023-04-19T12:18:05;14.90;49.30
57390;DHT22;43217;52.694;6.214;2023-04-19T12:20:35;14.80;49.10
57390;DHT22;43217;52.694;6.214;2023-04-19T12:23:01;14.60;49.90
57390;DHT22;43217;52.694;6.214;2023-04-19T12:25:32;14.70;49.40
57390;DHT22;43217;52.694;6.214;2023-04-19T12:27:59;14.70;49.20
57390;DHT22;43217;52.694;6.214;2023-04-19T12:30:25;14.70;49.60
57390;DHT22;43217;52.694;6.214;2023-04-19T12:32:54;14.70;49.80
57390;DHT22;43217;52.694;6.214;2023-04-19T12:35:25;14.50;49.20
57390;DHT22;43217;52.694;6.214;2023-04-19T12:37:52;14.50;50.00
57390;DHT22;43217;52.694;6.214;2023-04-19T12:40:18;14.60;51.00
57390;DHT22;43217;52.694;6.214;2023-04-19T12:42:44;14.70;51.30
57390;DHT22;43217;52.694;6.214;2023-04-19T12:45:11;14.70;50.30
57390;DHT22;43217;52.694;6.214;2023-04-19T12:47:37;14.60;50.30
57390;DHT22;43217;52.694;6.214;2023-04-19T12:50:03;14.60;50.80
57390;DHT22;43217;52.694;6.214;2023-04-19T12:52:28;14.50;50.70
57390;DHT22;43217;52.694;6.214;2023-04-19T12:54:54;14.50;50.30
57390;DHT22;43217;52.694;6.214;2023-04-19T12:57:20;14.50;50.80
57390;DHT22;43217;52.694;6.214;2023-04-19T12:59:46;14.50;51.50
57390;DHT22;43217;52.694;6.214;2023-04-19T13:02:11;14.50;51.00
57390;DHT22;43217;52.694;6.214;2023-04-19T13:04:37;14.50;51.50
57390;DHT22;43217;52.694;6.214;2023-04-19T13:07:03;14.60;52.10
57390;DHT22;43217;52.694;6.214;2023-04-19T13:09:28;14.70;51.90
57390;DHT22;43217;52.694;6.214;2023-04-19T13:11:54;14.70;51.80
57390;DHT22;43217;52.694;6.214;2023-04-19T13:14:20;14.70;51.90
57390;DHT22;43217;52.694;6.214;2023-04-19T13:16:46;14.70;51.60
57390;DHT22;43217;52.694;6.214;2023-04-19T13:19:12;14.70;52.40
57390;DHT22;43217;52.694;6.214;2023-04-19T13:21:38;14.70;52.30
57390;DHT22;43217;52.694;6.214;2023-04-19T13:24:03;14.60;52.90
57390;DHT22;43217;52.694;6.214;2023-04-19T13:26:29;14.60;53.10
57390;DHT22;43217;52.694;6.214;2023-04-19T13:28:55;14.70;52.80
57390;DHT22;43217;52.694;6.214;2023-04-19T13:31:21;14.70;53.10
57390;DHT22;43217;52.694;6.214;2023-04-19T13:33:46;14.70;52.90
57390;DHT22;43217;52.694;6.214;2023-04-19T13:36:12;14.70;53.40
57390;DHT22;43217;52.694;6.214;2023-04-19T13:38:37;14.70;53.60
57390;DHT22;43217;52.694;6.214;2023-04-19T13:41:03;14.70;53.30
57390;DHT22;43217;52.694;6.214;2023-04-19T13:43:29;14.70;53.70
57390;DHT22;43217;52.694;6.214;2023-04-19T13:45:54;14.70;53.10
57390;DHT22;43217;52.694;6.214;2023-04-19T13:48:20;14.60;53.80
57390;DHT22;43217;52.694;6.214;2023-04-19T13:50:46;14.60;55.10
57390;DHT22;43217;52.694;6.214;2023-04-19T13:53:12;14.70;55.30
57390;DHT22;43217;52.694;6.214;2023-04-19T13:55:37;14.60;55.20
57390;DHT22;43217;52.694;6.214;2023-04-19T13:58:03;14.70;53.80
57390;DHT22;43217;52.694;6.214;2023-04-19T14:00:31;14.60;54.50
57390;DHT22;43217;52.694;6.214;2023-04-19T14:02:58;14.60;55.00
57390;DHT22;43217;52.694;6.214;2023-04-19T14:05:23;14.60;55.40
57390;DHT22;43217;52.694;6.214;2023-04-19T14:07:49;14.60;56.50
57390;DHT22;43217;52.694;6.214;2023-04-19T14:10:15;14.70;57.40
57390;DHT22;43217;52.694;6.214;2023-04-19T14:12:40;14.70;56.90
57390;DHT22;43217;52.694;6.214;2023-04-19T14:15:06;14.80;57.10
57390;DHT22;43217;52.694;6.214;2023-04-19T14:17:32;14.90;56.80
57390;DHT22;43217;52.694;6.214;2023-04-19T14:20:00;14.90;57.40
57390;DHT22;43217;52.694;6.214;2023-04-19T14:22:25;14.90;56.40
57390;DHT22;43217;52.694;6.214;2023-04-19T14:24:51;15.00;56.90
57390;DHT22;43217;52.694;6.214;2023-04-19T14:27:17;14.90;56.60
57390;DHT22;43217;52.694;6.214;2023-04-19T14:29:43;14.80;58.00
57390;DHT22;43217;52.694;6.214;2023-04-19T14:32:09;14.90;58.40
57390;DHT22;43217;52.694;6.214;2023-04-19T14:34:34;14.90;58.30
57390;DHT22;43217;52.694;6.214;2023-04-19T14:37:00;14.80;57.10
57390;DHT22;43217;52.694;6.214;2023-04-19T14:39:26;14.80;57.80
57390;DHT22;43217;52.694;6.214;2023-04-19T14:41:51;14.90;59.00
57390;DHT22;43217;52.694;6.214;2023-04-19T14:44:17;14.90;57.10
57390;DHT22;43217;52.694;6.214;2023-04-19T14:46:42;14.70;57.60
57390;DHT22;43217;52.694;6.214;2023-04-19T14:49:08;14.70;58.10
57390;DHT22;43217;52.694;6.214;2023-04-19T14:51:34;14.70;57.50
57390;DHT22;43217;52.694;6.214;2023-04-19T14:53:59;14.70;56.10
57390;DHT22;43217;52.694;6.214;2023-04-19T14:56:25;14.70;56.50
57390;DHT22;43217;52.694;6.214;2023-04-19T14:58:54;14.70;56.70
57390;DHT22;43217;52.694;6.214;2023-04-19T15:01:21;14.80;57.60
57390;DHT22;43217;52.694;6.214;2023-04-19T15:03:50;14.80;58.20
57390;DHT22;43217;52.694;6.214;2023-04-19T15:06:16;14.90;57.30
57390;DHT22;43217;52.694;6.214;2023-04-19T15:08:41;14.80;57.30
57390;DHT22;43217;52.694;6.214;2023-04-19T15:11:08;14.80;56.30
57390;DHT22;43217;52.694;6.214;2023-04-19T15:13:33;14.70;56.60
57390;DHT22;43217;52.694;6.214;2023-04-19T15:16:00;14.80;57.50
57390;DHT22;43217;52.694;6.214;2023-04-19T15:18:28;14.70;56.80
57390;DHT22;43217;52.694;6.214;2023-04-19T15:20:53;14.80;56.60
57390;DHT22;43217;52.694;6.214;2023-04-19T15:23:23;14.70;56.10
57390;DHT22;43217;52.694;6.214;2023-04-19T15:25:50;14.80;56.00
57390;DHT22;43217;52.694;6.214;2023-04-19T15:28:16;14.80;55.90
57390;DHT22;43217;52.694;6.214;2023-04-19T15:30:41;14.70;55.00
57390;DHT22;43217;52.694;6.214;2023-04-19T15:33:07;14.70;55.70
57390;DHT22;43217;52.694;6.214;2023-04-19T15:35:33;14.70;55.50
57390;DHT22;43217;52.694;6.214;2023-04-19T15:37:59;14.80;54.80
57390;DHT22;43217;52.694;6.214;2023-04-19T15:40:24;14.80;56.00
57390;DHT22;43217;52.694;6.214;2023-04-19T15:42:50;14.80;54.70